sensor_id;sensor_type;location;lat;lon;timestamp;temperature;humidity
2621;DHT22;1320;48.128;11.592;2023-09-18T00:01:05;20.70;99.90
2621;DHT22;1320;48.128;11.592;2023-09-18T00:03:32;20.60;99.90
2621;DHT22;1320;48.128;11.592;2023-09-18T00:05:58;20.60;99.90
2621;DHT22;1320;48.128;11.592;2023-09-18T00:08:23;20.60;99.90
2621;DHT22;1320;48.128;11.592;2023-09-18T00:10:52;20.60;99.90
2621;DHT22;1320;48.128;11.592;2023-09-18T00:13:18;20.60;99.90
2621;DHT22;1320;48.128;11.592;2023-09-18T00:15:44;20.60;99.90
2621;DHT22;1320;48.128;11.592;2023-09-18T00:18:13;20.50;99.90
2621;DHT22;1320;48.128;11.592;2023-09-18T00:20:39;20.50;99.90
2621;DHT22;1320;48.128;11.592;2023-09-18T00:23:06;20.50;99.90
2621;DHT22;1320;48.128;11.592;2023-09-18T00:25:33;20.50;99.90
2621;DHT22;1320;48.128;11.592;2023-09-18T00:27:59;20.50;99.90
2621;DHT22;1320;48.128;11.592;2023-09-18T00:30:25;20.40;99.90
2621;DHT22;1320;48.128;11.592;2023-09-18T00:32:50;20.40;99.90
2621;DHT22;1320;48.128;11.592;2023-09-18T00:35:16;20.40;99.90
2621;DHT22;1320;48.128;11.592;2023-09-18T00:37:42;20.30;99.90
2621;DHT22;1320;48.128;11.592;2023-09-18T00:40:09;20.30;99.90
2621;DHT22;1320;48.128;11.592;2023-09-18T00:42:35;20.30;99.90
2621;DHT22;1320;48.128;11.592;2023-09-18T00:45:01;20.30;99.90
2621;DHT22;1320;48.128;11.592;2023-09-18T00:47:28;20.30;99.90
2621;DHT22;1320;48.128;11.592;2023-09-18T00:49:53;20.30;99.90
2621;DHT22;1320;48.128;11.592;2023-09-18T00:52:21;20.20;99.90
2621;DHT22;1320;48.128;11.592;2023-09-18T00:54:48;20.20;99.90
2621;DHT22;1320;48.128;11.592;2023-09-18T00:57:14;20.30;99.90
2621;DHT22;1320;48.128;11.592;2023-09-18T00:59:40;20.30;99.90
2621;DHT22;1320;48.128;11.592;2023-09-18T01:02:05;20.30;99.90
2621;DHT22;1320;48.128;11.592;2023-09-18T01:04:33;20.30;99.90
2621;DHT22;1320;48.128;11.592;2023-09-18T01:07:01;20.30;99.90
2621;DHT22;1320;48.128;11.592;2023-09-18T01:09:31;20.20;99.90
2621;DHT22;1320;48.128;11.592;2023-09-18T01:12:23;20.20;99.90
2621;DHT22;1320;48.128;11.592;2023-09-18T01:17:20;20.20;99.90
2621;DHT22;1320;48.128;11.592;2023-09-18T01:19:46;20.20;99.90
2621;DHT22;1320;48.128;11.592;2023-09-18T01:22:14;20.20;99.90
2621;DHT22;1320;48.128;11.592;2023-09-18T01:24:41;20.20;99.90
2621;DHT22;1320;48.128;11.592;2023-09-18T01:27:11;20.20;99.90
2621;DHT22;1320;48.128;11.592;2023-09-18T01:29:38;20.20;99.90
2621;DHT22;1320;48.128;11.592;2023-09-18T01:32:04;20.20;99.90
2621;DHT22;1320;48.128;11.592;2023-09-18T01:34:34;20.20;99.90
2621;DHT22;1320;48.128;11.592;2023-09-18T01:37:03;20.20;99.90
2621;DHT22;1320;48.128;11.592;2023-09-18T01:39:32;20.20;99.90
2621;DHT22;1320;48.128;11.592;2023-09-18T01:41:59;20.10;99.90
2621;DHT22;1320;48.128;11.592;2023-09-18T01:44:27;20.20;99.90
2621;DHT22;1320;48.128;11.592;2023-09-18T01:46:53;20.20;99.90
2621;DHT22;1320;48.128;11.592;2023-09-18T01:49:33;20.20;99.90
2621;DHT22;1320;48.128;11.592;2023-09-18T01:51:59;20.20;99.90
2621;DHT22;1320;48.128;11.592;2023-09-18T01:54:25;20.20;99.90
2621;DHT22;1320;48.128;11.592;2023-09-18T01:56:51;20.20;99.90
2621;DHT22;1320;48.128;11.592;2023-09-18T01:59:20;20.20;99.90
2621;DHT22;1320;48.128;11.592;2023-09-18T02:01:47;20.30;99.90
2621;DHT22;1320;48.128;11.592;2023-09-18T02:04:13;20.30;99.90
2621;DHT22;1320;48.128;11.592;2023-09-18T02:06:38;20.30;99.90
2621;DHT22;1320;48.128;11.592;2023-09-18T02:09:05;20.30;99.90
2621;DHT22;1320;48.128;11.592;2023-09-18T02:11:31;20.40;99.90
2621;DHT22;1320;48.128;11.592;2023-09-18T02:13:56;20.40;99.90
2621;DHT22;1320;48.128;11.592;2023-09-18T02:16:22;20.40;99.90
2621;DHT22;1320;48.128;11.592;2023-09-18T02:18:50;20.40;99.90
2621;DHT22;1320;48.128;11.592;2023-09-18T02:21:19;20.40;99.90
2621;DHT22;1320;48.128;11.592;2023-09-18T02:23:45;20.50;99.90
2621;DHT22;1320;48.128;11.592;2023-09-18T02:26:11;20.40;99.90
2621;DHT22;1320;48.128;11.592;2023-09-18T02:28:36;20.40;99.90
2621;DHT22;1320;48.128;11.592;2023-09-18T02:31:02;20.40;99.90
2621;DHT22;1320;48.128;11.592;2023-09-18T02:33:28;20.40;99.90
2621;DHT22;1320;48.128;11.592;2023-09-18T02:35:53;20.40;99.90
2621;DHT22;1320;48.128;11.592;2023-09-18T02:38:19;20.40;99.90
2621;DHT22;1320;48.128;11.592;2023-09-18T02:40:45;20.40;99.90
2621;DHT22;1320;48.128;11.592;2023-09-18T02:43:10;20.40;99.90
2621;DHT22;1320;48.128;11.592;2023-09-18T02:45:36;20.40;99.90
2621;DHT22;1320;48.128;11.592;2023-09-18T02:48:02;20.40;99.90
2621;DHT22;1320;48.128;11.592;2023-09-18T02:50:27;20.40;99.90
2621;DHT22;1320;48.128;11.592;2023-09-18T02:52:53;20.40;99.90
2621;DHT22;1320;48.128;11.592;2023-09-18T02:55:19;20.40;99.90
2621;DHT22;1320;48.128;11.592;2023-09-18T02:57:45;20.40;99.90
2621;DHT22;1320;48.128;11.592;2023-09-18T03:00:10;20.40;99.90
2621;DHT22;1320;48.128;11.592;2023-09-18T03:02:36;20.40;99.90
2621;DHT22;1320;48.128;11.592;2023-09-18T03:05:02;20.30;99.90
2621;DHT22;1320;48.128;11.592;2023-09-18T03:07:27;20.30;99.90
2621;DHT22;1320;48.128;11.592;2023-09-18T03:09:56;20.30;99.90
2621;DHT22;1320;48.128;11.592;2023-09-18T03:12:21;20.40;99.90
2621;DHT22;1320;48.128;11.592;2023-09-18T03:14:50;20.30;99.90
2621;DHT22;1320;48.128;11.592;2023-09-18T03:17:16;20.30;99.90
2621;DHT22;1320;48.128;11.592;2023-09-18T03:19:42;20.30;99.90
2621;DHT22;1320;48.128;11.592;2023-09-18T03:22:07;20.40;99.90
2621;DHT22;1320;48.128;11.592;2023-09-18T03:24:33;20.40;99.90
2621;DHT22;1320;48.128;11.592;2023-09-18T03:26:59;20.40;99.90
2621;DHT22;1320;48.128;11.592;2023-09-18T03:29:24;20.40;99.90
2621;DHT22;1320;48.128;11.592;2023-09-18T03:31:50;20.40;99.90
2621;DHT22;1320;48.128;11.592;2023-09-18T03:34:16;20.50;99.90
2621;DHT22;1320;48.128;11.592;2023-09-18T03:36:41;20.50;99.90
2621;DHT22;1320;48.128;11.592;2023-09-18T03:39:07;20.50;99.90
2621;DHT22;1320;48.128;11.592;2023-09-18T03:41:33;20.50;99.90
2621;DHT22;1320;48.128;11.592;2023-09-18T03:44:02;20.50;99.90
2621;DHT22;1320;48.128;11.592;2023-09-18T03:46:28;20.50;99.90
2621;DHT22;1320;48.128;11.592;2023-09-18T03:48:53;20.60;99.90
2621;DHT22;1320;48.128;11.592;2023-09-18T03:51:20;20.60;99.90
2621;DHT22;1320;48.128;11.592;2023-09-18T03:53:46;20.50;99.90
2621;DHT22;1320;48.128;11.592;2023-09-18T03:56:13;20.50;99.90
2621;DHT22;1320;48.128;11.592;2023-09-18T03:58:38;20.50;99.90
2621;DHT22;1320;48.128;11.592;2023-09-18T04:01:04;20.50;99.90
2621;DHT22;1320;48.128;11.592;2023-09-18T04:03:30;20.40;99.90
2621;DHT22;1320;48.128;11.592;2023-09-18T04:05:56;20.40;99.90
2621;DHT22;1320;48.128;11.592;2023-09-18T04:08:21;20.40;99.90
2621;DHT22;1320;48.128;11.592;2023-09-18T04:10:48;20.40;99.90
2621;DHT22;1320;48.128;11.592;2023-09-18T04:13:13;20.30;99.90
2621;DHT22;1320;48.128;11.592;2023-09-18T04:15:39;20.30;99.90
2621;DHT22;1320;48.128;11.592;2023-09-18T04:18:05;20.30;99.90
2621;DHT22;1320;48.128;11.592;2023-09-18T04:20:31;20.30;99.90
2621;DHT22;1320;48.128;11.592;2023-09-18T04:23:25;20.30;99.90
2621;DHT22;1320;48.128;11.592;2023-09-18T04:25:52;20.20;99.90
2621;DHT22;1320;48.128;11.592;2023-09-18T04:28:19;20.20;99.90
2621;DHT22;1320;48.128;11.592;2023-09-18T04:30:46;20.20;99.90
2621;DHT22;1320;48.128;11.592;2023-09-18T04:33:16;20.20;99.90
2621;DHT22;1320;48.128;11.592;2023-09-18T04:35:43;20.20;99.90
2621;DHT22;1320;48.128;11.592;2023-09-18T04:38:09;20.20;99.90
2621;DHT22;1320;48.128;11.592;2023-09-18T04:40:36;20.10;99.90
2621;DHT22;1320;48.128;11.592;2023-09-18T04:43:02;20.10;99.90
2621;DHT22;1320;48.128;11.592;2023-09-18T04:45:30;20.10;99.90
2621;DHT22;1320;48.128;11.592;2023-09-18T04:47:56;20.10;99.90
2621;DHT22;1320;48.128;11.592;2023-09-18T04:50:22;20.10;99.90
2621;DHT22;1320;48.128;11.592;2023-09-18T04:52:48;20.10;99.90
2621;DHT22;1320;48.128;11.592;2023-09-18T04:55:17;20.10;99.90
2621;DHT22;1320;48.128;11.592;2023-09-18T04:57:43;20.10;99.90
2621;DHT22;1320;48.128;11.592;2023-09-18T05:00:09;20.10;99.90
2621;DHT22;1320;48.128;11.592;2023-09-18T05:02:38;20.10;99.90
2621;DHT22;1320;48.128;11.592;2023-09-18T05:05:04;20.10;99.90
2621;DHT22;1320;48.128;11.592;2023-09-18T05:07:30;20.10;99.90
2621;DHT22;1320;48.128;11.592;2023-09-18T05:09:56;20.10;99.90
2621;DHT22;1320;48.128;11.592;2023-09-18T05:12:21;20.10;99.90
2621;DHT22;1320;48.128;11.592;2023-09-18T05:14:48;20.00;99.90
2621;DHT22;1320;48.128;11.592;2023-09-18T05:17:16;20.00;99.90
2621;DHT22;1320;48.128;11.592;2023-09-18T05:19:42;20.10;99.90
2621;DHT22;1320;48.128;11.592;2023-09-18T05:22:08;20.10;99.90
2621;DHT22;1320;48.128;11.592;2023-09-18T05:24:39;20.10;99.90
2621;DHT22;1320;48.128;11.592;2023-09-18T05:27:06;20.10;99.90
2621;DHT22;1320;48.128;11.592;2023-09-18T05:29:33;20.10;99.90
2621;DHT22;1320;48.128;11.592;2023-09-18T05:32:00;20.10;99.90
2621;DHT22;1320;48.128;11.592;2023-09-18T05:34:26;20.10;99.90
2621;DHT22;1320;48.128;11.592;2023-09-18T05:36:52;20.10;99.90
2621;DHT22;1320;48.128;11.592;2023-09-18T05:39:18;20.20;99.90
2621;DHT22;1320;48.128;11.592;2023-09-18T05:41:43;20.20;99.90
2621;DHT22;1320;48.128;11.592;2023-09-18T05:44:09;20.20;99.90
2621;DHT22;1320;48.128;11.592;2023-09-18T05:46:35;20.20;99.90
2621;DHT22;1320;48.128;11.592;2023-09-18T05:49:02;20.30;99.90
2621;DHT22;1320;48.128;11.592;2023-09-18T05:51:28;20.30;99.90
2621;DHT22;1320;48.128;11.592;2023-09-18T05:53:53;20.40;99.90
2621;DHT22;1320;48.128;11.592;2023-09-18T05:56:19;20.40;99.90
2621;DHT22;1320;48.128;11.592;2023-09-18T05:58:45;20.50;99.90
2621;DHT22;1320;48.128;11.592;2023-09-18T06:01:11;20.50;99.90
2621;DHT22;1320;48.128;11.592;2023-09-18T06:03:36;20.60;99.90
2621;DHT22;1320;48.128;11.592;2023-09-18T06:06:03;20.60;99.90
2621;DHT22;1320;48.128;11.592;2023-09-18T06:08:29;20.70;99.90
2621;DHT22;1320;48.128;11.592;2023-09-18T06:10:56;20.80;99.90
2621;DHT22;1320;48.128;11.592;2023-09-18T06:13:23;20.80;99.90
2621;DHT22;1320;48.128;11.592;2023-09-18T06:15:49;20.90;99.90
2621;DHT22;1320;48.128;11.592;2023-09-18T06:18:16;20.90;99.90
2621;DHT22;1320;48.128;11.592;2023-09-18T06:20:41;21.00;99.90
2621;DHT22;1320;48.128;11.592;2023-09-18T06:23:09;21.20;99.90
2621;DHT22;1320;48.128;11.592;2023-09-18T06:25:34;21.30;99.90
2621;DHT22;1320;48.128;11.592;2023-09-18T06:28:00;21.40;99.90
2621;DHT22;1320;48.128;11.592;2023-09-18T06:30:29;21.40;99.90
2621;DHT22;1320;48.128;11.592;2023-09-18T06:32:56;21.50;99.90
2621;DHT22;1320;48.128;11.592;2023-09-18T06:35:22;21.50;99.90
2621;DHT22;1320;48.128;11.592;2023-09-18T06:37:48;21.60;99.90
2621;DHT22;1320;48.128;11.592;2023-09-18T06:40:13;21.70;99.90
2621;DHT22;1320;48.128;11.592;2023-09-18T06:42:39;21.70;99.90
2621;DHT22;1320;48.128;11.592;2023-09-18T06:45:06;21.80;99.90
2621;DHT22;1320;48.128;11.592;2023-09-18T06:47:33;21.90;99.90
2621;DHT22;1320;48.128;11.592;2023-09-18T06:49:59;21.90;99.90
2621;DHT22;1320;48.128;11.592;2023-09-18T06:52:26;22.00;99.90
2621;DHT22;1320;48.128;11.592;2023-09-18T06:54:53;22.10;99.90
2621;DHT22;1320;48.128;11.592;2023-09-18T06:57:19;22.20;99.90
2621;DHT22;1320;48.128;11.592;2023-09-18T06:59:46;22.20;99.90
2621;DHT22;1320;48.128;11.592;2023-09-18T07:02:12;22.30;99.90
2621;DHT22;1320;48.128;11.592;2023-09-18T07:04:40;22.30;99.90
2621;DHT22;1320;48.128;11.592;2023-09-18T07:07:11;22.30;99.90
2621;DHT22;1320;48.128;11.592;2023-09-18T07:09:37;22.30;99.90
2621;DHT22;1320;48.128;11.592;2023-09-18T07:12:04;22.30;99.90
2621;DHT22;1320;48.128;11.592;2023-09-18T07:14:29;22.30;99.90
2621;DHT22;1320;48.128;11.592;2023-09-18T07:16:56;22.30;99.90
2621;DHT22;1320;48.128;11.592;2023-09-18T07:19:22;22.40;99.90
2621;DHT22;1320;48.128;11.592;2023-09-18T07:21:47;22.50;99.90
2621;DHT22;1320;48.128;11.592;2023-09-18T07:24:13;22.60;99.90
2621;DHT22;1320;48.128;11.592;2023-09-18T07:26:44;22.70;99.90
2621;DHT22;1320;48.128;11.592;2023-09-18T07:29:10;23.00;99.90
2621;DHT22;1320;48.128;11.592;2023-09-18T07:31:35;23.30;99.90
2621;DHT22;1320;48.128;11.592;2023-09-18T07:34:02;23.60;99.90
2621;DHT22;1320;48.128;11.592;2023-09-18T07:36:29;23.90;99.90
2621;DHT22;1320;48.128;11.592;2023-09-18T07:38:55;24.10;99.90
2621;DHT22;1320;48.128;11.592;2023-09-18T07:41:22;24.40;99.90
2621;DHT22;1320;48.128;11.592;2023-09-18T07:43:48;24.60;99.90
2621;DHT22;1320;48.128;11.592;2023-09-18T07:46:13;24.90;99.90
2621;DHT22;1320;48.128;11.592;2023-09-18T07:48:39;25.20;99.90
2621;DHT22;1320;48.128;11.592;2023-09-18T07:51:05;25.50;99.90
2621;DHT22;1320;48.128;11.592;2023-09-18T07:53:30;25.90;99.90
2621;DHT22;1320;48.128;11.592;2023-09-18T07:55:57;26.20;99.90
2621;DHT22;1320;48.128;11.592;2023-09-18T07:58:25;26.40;99.90
2621;DHT22;1320;48.128;11.592;2023-09-18T08:00:56;26.50;99.90
2621;DHT22;1320;48.128;11.592;2023-09-18T08:03:23;26.60;99.90
2621;DHT22;1320;48.128;11.592;2023-09-18T08:05:51;26.80;99.90
2621;DHT22;1320;48.128;11.592;2023-09-18T08:08:18;26.80;99.90
2621;DHT22;1320;48.128;11.592;2023-09-18T08:10:46;26.90;99.90
2621;DHT22;1320;48.128;11.592;2023-09-18T08:13:11;26.80;99.90
2621;DHT22;1320;48.128;11.592;2023-09-18T08:15:37;26.80;99.90
2621;DHT22;1320;48.128;11.592;2023-09-18T08:18:03;26.70;99.90
2621;DHT22;1320;48.128;11.592;2023-09-18T08:20:29;26.60;99.90
2621;DHT22;1320;48.128;11.592;2023-09-18T08:22:55;26.50;99.90
2621;DHT22;1320;48.128;11.592;2023-09-18T08:25:22;26.40;99.90
2621;DHT22;1320;48.128;11.592;2023-09-18T08:27:47;26.40;99.90
2621;DHT22;1320;48.128;11.592;2023-09-18T08:30:14;26.20;99.90
2621;DHT22;1320;48.128;11.592;2023-09-18T08:32:42;26.20;99.90
2621;DHT22;1320;48.128;11.592;2023-09-18T08:35:08;26.10;99.90
2621;DHT22;1320;48.128;11.592;2023-09-18T08:37:34;26.00;99.90
2621;DHT22;1320;48.128;11.592;2023-09-18T08:40:00;25.90;99.90
2621;DHT22;1320;48.128;11.592;2023-09-18T08:42:29;25.90;99.90
2621;DHT22;1320;48.128;11.592;2023-09-18T08:44:57;25.80;99.90
2621;DHT22;1320;48.128;11.592;2023-09-18T08:47:24;25.80;99.90
2621;DHT22;1320;48.128;11.592;2023-09-18T08:49:50;25.70;99.90
2621;DHT22;1320;48.128;11.592;2023-09-18T08:52:16;25.70;99.90
2621;DHT22;1320;48.128;11.592;2023-09-18T08:54:43;25.60;99.90
2621;DHT22;1320;48.128;11.592;2023-09-18T08:57:09;25.50;99.90
2621;DHT22;1320;48.128;11.592;2023-09-18T08:59:35;25.40;99.90
2621;DHT22;1320;48.128;11.592;2023-09-18T09:02:02;25.30;99.90
2621;DHT22;1320;48.128;11.592;2023-09-18T09:04:28;25.20;99.90
2621;DHT22;1320;48.128;11.592;2023-09-18T09:06:54;25.10;99.90
2621;DHT22;1320;48.128;11.592;2023-09-18T09:09:23;25.10;99.90
2621;DHT22;1320;48.128;11.592;2023-09-18T09:11:51;25.00;99.90
2621;DHT22;1320;48.128;11.592;2023-09-18T09:14:17;24.90;99.90
2621;DHT22;1320;48.128;11.592;2023-09-18T09:16:50;24.80;99.90
2621;DHT22;1320;48.128;11.592;2023-09-18T09:19:32;24.70;99.90
2621;DHT22;1320;48.128;11.592;2023-09-18T09:21:59;24.50;99.90
2621;DHT22;1320;48.128;11.592;2023-09-18T09:24:43;24.40;99.90
2621;DHT22;1320;48.128;11.592;2023-09-18T09:27:09;24.40;99.90
2621;DHT22;1320;48.128;11.592;2023-09-18T09:29:35;24.30;99.90
2621;DHT22;1320;48.128;11.592;2023-09-18T09:32:16;24.30;99.90
2621;DHT22;1320;48.128;11.592;2023-09-18T09:34:43;24.40;99.90
2621;DHT22;1320;48.128;11.592;2023-09-18T09:37:08;24.50;99.90
2621;DHT22;1320;48.128;11.592;2023-09-18T09:39:34;24.60;99.90
2621;DHT22;1320;48.128;11.592;2023-09-18T09:42:01;24.70;99.90
2621;DHT22;1320;48.128;11.592;2023-09-18T09:44:32;24.80;99.90
2621;DHT22;1320;48.128;11.592;2023-09-18T09:46:59;24.90;99.90
2621;DHT22;1320;48.128;11.592;2023-09-18T09:49:25;25.00;99.90
2621;DHT22;1320;48.128;11.592;2023-09-18T09:51:53;25.10;99.90
2621;DHT22;1320;48.128;11.592;2023-09-18T09:54:39;25.30;99.90
2621;DHT22;1320;48.128;11.592;2023-09-18T09:57:06;25.40;99.90
2621;DHT22;1320;48.128;11.592;2023-09-18T09:59:32;25.50;99.90
2621;DHT22;1320;48.128;11.592;2023-09-18T10:02:00;25.60;99.90
2621;DHT22;1320;48.128;11.592;2023-09-18T10:04:29;25.60;99.90
2621;DHT22;1320;48.128;11.592;2023-09-18T10:07:07;25.60;99.90
2621;DHT22;1320;48.128;11.592;2023-09-18T10:09:41;25.50;99.90
2621;DHT22;1320;48.128;11.592;2023-09-18T10:12:15;25.50;99.90
2621;DHT22;1320;48.128;11.592;2023-09-18T10:14:46;25.40;99.90
2621;DHT22;1320;48.128;11.592;2023-09-18T10:17:18;25.30;99.90
2621;DHT22;1320;48.128;11.592;2023-09-18T10:19:45;25.30;99.90
2621;DHT22;1320;48.128;11.592;2023-09-18T10:23:12;25.30;99.90
2621;DHT22;1320;48.128;11.592;2023-09-18T10:25:21;25.30;99.90
2621;DHT22;1320;48.128;11.592;2023-09-18T10:27:49;25.40;99.90
2621;DHT22;1320;48.128;11.592;2023-09-18T10:30:16;25.50;99.90
2621;DHT22;1320;48.128;11.592;2023-09-18T10:32:45;25.60;99.90
2621;DHT22;1320;48.128;11.592;2023-09-18T10:35:11;25.60;99.90
2621;DHT22;1320;48.128;11.592;2023-09-18T10:37:38;25.50;99.90
2621;DHT22;1320;48.128;11.592;2023-09-18T10:40:05;25.40;99.90
2621;DHT22;1320;48.128;11.592;2023-09-18T10:42:34;25.50;99.90
2621;DHT22;1320;48.128;11.592;2023-09-18T10:45:01;25.50;99.90
2621;DHT22;1320;48.128;11.592;2023-09-18T10:47:30;25.60;99.90
2621;DHT22;1320;48.128;11.592;2023-09-18T10:49:56;25.70;99.90
2621;DHT22;1320;48.128;11.592;2023-09-18T10:52:21;25.70;99.90
2621;DHT22;1320;48.128;11.592;2023-09-18T10:54:47;25.70;99.90
2621;DHT22;1320;48.128;11.592;2023-09-18T10:57:13;25.60;99.90
2621;DHT22;1320;48.128;11.592;2023-09-18T10:59:46;25.50;99.90
2621;DHT22;1320;48.128;11.592;2023-09-18T11:02:15;25.40;99.90
2621;DHT22;1320;48.128;11.592;2023-09-18T11:04:42;25.40;99.90
2621;DHT22;1320;48.128;11.592;2023-09-18T11:07:08;25.40;99.90
2621;DHT22;1320;48.128;11.592;2023-09-18T11:09:44;25.40;99.90
2621;DHT22;1320;48.128;11.592;2023-09-18T11:12:11;25.40;99.90
2621;DHT22;1320;48.128;11.592;2023-09-18T11:14:50;25.30;99.90
2621;DHT22;1320;48.128;11.592;2023-09-18T11:17:38;25.30;99.90
2621;DHT22;1320;48.128;11.592;2023-09-18T11:20:09;25.30;99.90
2621;DHT22;1320;48.128;11.592;2023-09-18T11:22:55;25.30;99.90
2621;DHT22;1320;48.128;11.592;2023-09-18T11:25:36;25.30;99.90
2621;DHT22;1320;48.128;11.592;2023-09-18T11:28:15;25.30;99.90
2621;DHT22;1320;48.128;11.592;2023-09-18T11:30:55;25.20;99.90
2621;DHT22;1320;48.128;11.592;2023-09-18T11:33:40;25.20;99.90
2621;DHT22;1320;48.128;11.592;2023-09-18T11:36:09;25.10;99.90
2621;DHT22;1320;48.128;11.592;2023-09-18T11:38:57;25.10;99.90
2621;DHT22;1320;48.128;11.592;2023-09-18T11:41:42;25.00;99.90
2621;DHT22;1320;48.128;11.592;2023-09-18T11:46:49;24.70;99.90
2621;DHT22;1320;48.128;11.592;2023-09-18T11:49:24;24.50;99.90
2621;DHT22;1320;48.128;11.592;2023-09-18T11:51:54;24.30;99.90
2621;DHT22;1320;48.128;11.592;2023-09-18T11:54:20;24.20;99.90
2621;DHT22;1320;48.128;11.592;2023-09-18T11:56:47;24.10;99.90
2621;DHT22;1320;48.128;11.592;2023-09-18T11:59:12;24.00;99.90
2621;DHT22;1320;48.128;11.592;2023-09-18T12:01:38;23.80;99.90
2621;DHT22;1320;48.128;11.592;2023-09-18T12:04:12;23.50;99.90
2621;DHT22;1320;48.128;11.592;2023-09-18T12:06:41;23.40;99.90
2621;DHT22;1320;48.128;11.592;2023-09-18T12:09:07;23.20;99.90
2621;DHT22;1320;48.128;11.592;2023-09-18T12:11:34;23.00;99.90
2621;DHT22;1320;48.128;11.592;2023-09-18T12:14:04;22.90;99.90
2621;DHT22;1320;48.128;11.592;2023-09-18T12:16:29;22.80;99.90
2621;DHT22;1320;48.128;11.592;2023-09-18T12:18:55;22.70;99.90
2621;DHT22;1320;48.128;11.592;2023-09-18T12:21:22;22.60;99.90
2621;DHT22;1320;48.128;11.592;2023-09-18T12:23:48;22.40;99.90
2621;DHT22;1320;48.128;11.592;2023-09-18T12:26:15;22.30;99.90
2621;DHT22;1320;48.128;11.592;2023-09-18T12:28:42;22.20;99.90
2621;DHT22;1320;48.128;11.592;2023-09-18T12:31:13;22.10;99.90
2621;DHT22;1320;48.128;11.592;2023-09-18T12:33:40;22.00;99.90
2621;DHT22;1320;48.128;11.592;2023-09-18T12:36:07;21.90;99.90
2621;DHT22;1320;48.128;11.592;2023-09-18T12:38:34;21.90;99.90
2621;DHT22;1320;48.128;11.592;2023-09-18T12:41:00;21.80;99.90
2621;DHT22;1320;48.128;11.592;2023-09-18T12:43:40;21.80;99.90
2621;DHT22;1320;48.128;11.592;2023-09-18T12:46:07;21.70;99.90
2621;DHT22;1320;48.128;11.592;2023-09-18T12:48:37;21.60;99.90
2621;DHT22;1320;48.128;11.592;2023-09-18T12:51:06;21.60;99.90
2621;DHT22;1320;48.128;11.592;2023-09-18T12:53:32;21.50;99.90
2621;DHT22;1320;48.128;11.592;2023-09-18T12:56:14;21.50;99.90
2621;DHT22;1320;48.128;11.592;2023-09-18T12:58:41;21.30;99.90
2621;DHT22;1320;48.128;11.592;2023-09-18T13:01:08;21.10;99.90
2621;DHT22;1320;48.128;11.592;2023-09-18T13:03:45;21.00;99.90
2621;DHT22;1320;48.128;11.592;2023-09-18T13:06:16;20.80;99.90
2621;DHT22;1320;48.128;11.592;2023-09-18T13:08:45;20.50;99.90
2621;DHT22;1320;48.128;11.592;2023-09-18T13:11:11;20.40;99.90
2621;DHT22;1320;48.128;11.592;2023-09-18T13:13:40;20.30;99.90
2621;DHT22;1320;48.128;11.592;2023-09-18T13:16:07;20.20;99.90
2621;DHT22;1320;48.128;11.592;2023-09-18T13:18:34;20.10;99.90
2621;DHT22;1320;48.128;11.592;2023-09-18T13:21:09;20.00;99.90
2621;DHT22;1320;48.128;11.592;2023-09-18T13:23:35;19.90;99.90
2621;DHT22;1320;48.128;11.592;2023-09-18T13:26:02;19.90;99.90
2621;DHT22;1320;48.128;11.592;2023-09-18T13:28:28;19.80;99.90
2621;DHT22;1320;48.128;11.592;2023-09-18T13:30:56;19.70;99.90
2621;DHT22;1320;48.128;11.592;2023-09-18T13:33:22;19.60;99.90
2621;DHT22;1320;48.128;11.592;2023-09-18T13:35:49;19.60;99.90
2621;DHT22;1320;48.128;11.592;2023-09-18T13:38:14;19.60;99.90
2621;DHT22;1320;48.128;11.592;2023-09-18T13:40:41;19.60;99.90
2621;DHT22;1320;48.128;11.592;2023-09-18T13:43:09;19.60;99.90
2621;DHT22;1320;48.128;11.592;2023-09-18T13:45:35;19.60;99.90
2621;DHT22;1320;48.128;11.592;2023-09-18T13:48:02;19.70;99.90
2621;DHT22;1320;48.128;11.592;2023-09-18T13:50:27;19.80;99.90
2621;DHT22;1320;48.128;11.592;2023-09-18T13:52:53;19.80;99.90
2621;DHT22;1320;48.128;11.592;2023-09-18T13:55:19;19.80;99.90
2621;DHT22;1320;48.128;11.592;2023-09-18T13:57:45;19.90;99.90
2621;DHT22;1320;48.128;11.592;2023-09-18T14:00:12;19.90;99.90
2621;DHT22;1320;48.128;11.592;2023-09-18T14:02:40;20.00;99.90
2621;DHT22;1320;48.128;11.592;2023-09-18T14:05:06;20.00;99.90
2621;DHT22;1320;48.128;11.592;2023-09-18T14:07:32;20.10;99.90
2621;DHT22;1320;48.128;11.592;2023-09-18T14:09:58;20.10;99.90
2621;DHT22;1320;48.128;11.592;2023-09-18T14:12:24;20.30;99.90
2621;DHT22;1320;48.128;11.592;2023-09-18T14:14:50;20.50;99.90
2621;DHT22;1320;48.128;11.592;2023-09-18T14:17:16;20.70;99.90
2621;DHT22;1320;48.128;11.592;2023-09-18T14:19:46;20.90;99.90
2621;DHT22;1320;48.128;11.592;2023-09-18T14:22:12;21.00;99.90
2621;DHT22;1320;48.128;11.592;2023-09-18T14:24:39;21.10;99.90
2621;DHT22;1320;48.128;11.592;2023-09-18T14:27:05;21.20;99.90
2621;DHT22;1320;48.128;11.592;2023-09-18T14:29:32;21.50;99.90
2621;DHT22;1320;48.128;11.592;2023-09-18T14:31:59;21.60;99.90
2621;DHT22;1320;48.128;11.592;2023-09-18T14:34:25;21.70;99.90
2621;DHT22;1320;48.128;11.592;2023-09-18T14:36:50;21.80;99.90
2621;DHT22;1320;48.128;11.592;2023-09-18T14:39:16;21.80;99.90
2621;DHT22;1320;48.128;11.592;2023-09-18T14:41:41;21.80;99.90
2621;DHT22;1320;48.128;11.592;2023-09-18T14:44:09;21.80;99.90
2621;DHT22;1320;48.128;11.592;2023-09-18T14:46:35;21.70;99.90
2621;DHT22;1320;48.128;11.592;2023-09-18T14:49:06;21.70;99.90
2621;DHT22;1320;48.128;11.592;2023-09-18T14:51:33;21.70;99.90
2621;DHT22;1320;48.128;11.592;2023-09-18T14:53:59;21.60;99.90
2621;DHT22;1320;48.128;11.592;2023-09-18T14:56:26;21.50;99.90
2621;DHT22;1320;48.128;11.592;2023-09-18T14:58:52;21.50;99.90
2621;DHT22;1320;48.128;11.592;2023-09-18T15:01:23;21.40;99.90
2621;DHT22;1320;48.128;11.592;2023-09-18T15:03:50;21.40;99.90
2621;DHT22;1320;48.128;11.592;2023-09-18T15:06:16;21.40;99.90
2621;DHT22;1320;48.128;11.592;2023-09-18T15:08:42;21.30;99.90
2621;DHT22;1320;48.128;11.592;2023-09-18T15:11:08;21.30;99.90
2621;DHT22;1320;48.128;11.592;2023-09-18T15:13:34;21.30;99.90
2621;DHT22;1320;48.128;11.592;2023-09-18T15:16:04;21.20;99.90
2621;DHT22;1320;48.128;11.592;2023-09-18T15:18:29;21.20;99.90
2621;DHT22;1320;48.128;11.592;2023-09-18T15:20:55;21.20;99.90
2621;DHT22;1320;48.128;11.592;2023-09-18T15:23:22;21.20;99.90
2621;DHT22;1320;48.128;11.592;2023-09-18T15:25:49;21.10;99.90
2621;DHT22;1320;48.128;11.592;2023-09-18T15:28:18;21.10;99.90
2621;DHT22;1320;48.128;11.592;2023-09-18T15:30:44;21.10;99.90
2621;DHT22;1320;48.128;11.592;2023-09-18T15:33:09;21.00;99.90
2621;DHT22;1320;48.128;11.592;2023-09-18T15:35:36;20.90;99.90
2621;DHT22;1320;48.128;11.592;2023-09-18T15:38:02;20.90;99.90
2621;DHT22;1320;48.128;11.592;2023-09-18T15:40:28;20.90;99.90
2621;DHT22;1320;48.128;11.592;2023-09-18T15:42:54;20.90;99.90
2621;DHT22;1320;48.128;11.592;2023-09-18T15:45:19;20.90;99.90
2621;DHT22;1320;48.128;11.592;2023-09-18T15:47:45;20.80;99.90
2621;DHT22;1320;48.128;11.592;2023-09-18T15:50:12;20.80;99.90
2621;DHT22;1320;48.128;11.592;2023-09-18T15:52:38;20.70;99.90